หน้าหลัก
METAR-TAF:

METAR-TAF

ท่าอากาศยาน :

Heidrun, นอร์เวย์

ละติจูด: 65-19-30N, ลองจิจูด: 007-19-36E, ความสูง: 0 ม.

การสังเกตสภาพอากาศปัจจุบัน

รายงานได้ทำขึ้นเมื่อ 33 นาทีที่แล้ว ณ เวลา 02:20 UTC
ลม 8 นอตจากตะวันออก/ตะวันออกเฉียงเหนือ
อุณหภูมิ 13°C
ความชื้น 82%
ความกดอากาศ 1015 hPa
ทัศนวิสัย 10 กม. หรือมากกว่า
ไม่มีเมฆต่ำกว่า 1,500 ม. และไม่มีเมฆคิวมูโลนิมบัส

METAR: ENHE 250220Z 07008KT CAVOK 13/10 Q1015 W///S3

เวลา: 04:53 (02:53 UTC)

การพยากรณ์

รายงานได้ทำขึ้นเมื่อ 53 นาทีที่แล้ว ณ เวลา 02:00 UTC
การพยากรณ์มีผลตั้งแต่วันที่ 25 ณ เวลา 03 UTC จนถึงวันที่ 25 ณ เวลา 12 UTC
ลม 8 นอตจากตะวันออก
ทัศนวิสัย 10 กม. หรือมากกว่า
มีเมฆน้อยที่ความสูง 1500 ฟุต
กำลังกลายเป็น
ตั้งแต่วันที่ 25 ณ เวลา 04 UTC จนถึงวันที่ 25 ณ เวลา 07 UTC
ลม 18 นอตจากตะวันออก/ตะวันออกเฉียงใต้

TAF: ENHE 250200Z 2503/2512 08008KT 9999 FEW015 BECMG 2504/2507 11018KT

สังเกตการณ์สภาพอากาศและพยากรณ์อากาศของสนามบินมากกว่า 4000 แห่ง (รายงาน METAR และ TAF).

สถานีที่ดูได้จะแสดงไว้ด้วยจุดสีเหลืองและสีแดงบนแผนที่.

เลื่อนเมาส์ไปเหนือจุดเพื่อดูชื่อสถานี.

แล้วคลิกเพื่อดูสังเกตการณ์และการพยากรณ์สภาพอากาศ.

ในการเปลี่ยนแผนที่: คลิกที่ปุ่มสีเขียวที่มีกากบาทสีดำเพื่อซูมเข้า; ที่ปุ่มสีเขียวที่มีขีดเพื่อซูมออก; หรือที่ลูกศรสีเขียวเพื่อไปยังแผนที่ที่อยู่ติดกัน.


METAR-TAF: